Time;durP1;ratioP1;P1;durP2;ratioP2;P2;SDS_P1;SDS_P2;PMS_P1;PMS_P2;Temp;Humidity;BMP_temperature;BMP_pressure;BME280_temperature;BME280_humidity;BME280_pressure;Samples;Min_cycle;Max_cycle;Signal;HPM_P1;HPM_P2
2022/10/03 00:00:35;;;;;;;26.17;5.60;;;;;;;;;;5052254;28;20353;-60
2022/10/03 00:03:20;;;;;;;24.40;5.60;;;;;;;;;;5070062;28;20053;-60
2022/10/03 00:05:50;;;;;;;22.60;4.47;;;;;;;;;;5071005;28;20063;-60
2022/10/03 00:08:17;;;;;;;29.93;5.47;;;;;;;;;;5071961;28;20119;-60
2022/10/03 00:10:46;;;;;;;33.63;5.47;;;;;;;;;;5060789;28;20061;-60
2022/10/03 00:13:21;;;;;;;19.20;4.63;;;;;;;;;;5066309;28;20045;-60
2022/10/03 00:16:02;;;;;;;23.83;4.50;;;;;;;;;;5071155;28;20406;-60
2022/10/03 00:18:36;;;;;;;25.33;4.47;;;;;;;;;;5071534;28;20048;-60
2022/10/03 00:21:06;;;;;;;29.23;5.88;;;;;;;;;;5055757;28;20053;-60
2022/10/03 00:23:46;;;;;;;26.37;4.50;;;;;;;;;;5052725;28;20045;-60
2022/10/03 00:26:27;;;;;;;28.20;4.90;;;;;;;;;;5051851;28;20053;-60
2022/10/03 00:28:57;;;;;;;31.20;4.90;;;;;;;;;;5063965;28;20142;-60
2022/10/03 00:31:43;;;;;;;28.40;4.30;;;;;;;;;;5054266;28;20056;-60
2022/10/03 00:34:15;;;;;;;26.40;4.27;;;;;;;;;;5057978;28;20059;-60
2022/10/03 00:36:41;;;;;;;20.73;4.23;;;;;;;;;;5058326;28;20457;-60
2022/10/03 00:39:13;;;;;;;28.77;5.10;;;;;;;;;;5066380;28;20135;-60
2022/10/03 00:41:58;;;;;;;24.47;4.87;;;;;;;;;;5070440;28;20419;-60
2022/10/03 00:44:24;;;;;;;26.70;6.83;;;;;;;;;;5071002;28;20052;-60
2022/10/03 00:46:56;;;;;;;27.63;4.77;;;;;;;;;;5059819;28;20052;-60
2022/10/03 00:49:34;;;;;;;23.47;6.57;;;;;;;;;;5051225;28;20057;-60
2022/10/03 00:52:12;;;;;;;27.57;4.23;;;;;;;;;;5055345;28;20490;-60
2022/10/03 00:54:54;;;;;;;19.73;5.10;;;;;;;;;;5064417;28;20049;-60
2022/10/03 00:57:26;;;;;;;27.93;4.90;;;;;;;;;;5057491;28;20084;-60
2022/10/03 01:00:11;;;;;;;27.17;5.47;;;;;;;;;;5070891;28;20049;-60
2022/10/03 01:02:40;;;;;;;28.03;5.63;;;;;;;;;;5054396;28;20083;-60
2022/10/03 01:05:11;;;;;;;23.50;5.23;;;;;;;;;;5069722;28;20141;-60
2022/10/03 01:07:53;;;;;;;24.50;4.63;;;;;;;;;;5070584;28;20525;-60
2022/10/03 01:10:22;;;;;;;21.77;4.87;;;;;;;;;;5069051;28;20064;-59
2022/10/03 01:12:51;;;;;;;26.40;5.30;;;;;;;;;;5058177;28;20374;-60
2022/10/03 01:15:23;;;;;;;29.70;6.50;;;;;;;;;;5052803;28;20053;-60
2022/10/03 01:17:49;;;;;;;24.50;5.63;;;;;;;;;;5061658;28;20071;-60
2022/10/03 01:20:15;;;;;;;30.17;4.80;;;;;;;;;;5067533;28;20102;-60
2022/10/03 01:22:53;;;;;;;24.17;5.53;;;;;;;;;;5052143;28;20099;-60
2022/10/03 01:25:19;;;;;;;38.87;6.47;;;;;;;;;;5066638;28;20056;-60
2022/10/03 01:30:50;;;;;;;27.03;5.50;;;;;;;;;;5070111;28;20049;-60
2022/10/03 01:33:26;;;;;;;32.60;5.30;;;;;;;;;;5068899;28;20181;-60
2022/10/03 01:36:06;;;;;;;25.00;5.60;;;;;;;;;;5050346;28;20057;-60
2022/10/03 01:38:41;;;;;;;29.90;5.67;;;;;;;;;;5050371;28;20048;-60
2022/10/03 01:41:26;;;;;;;25.23;4.90;;;;;;;;;;5050628;28;20061;-60
2022/10/03 01:44:01;;;;;;;31.50;5.80;;;;;;;;;;5050622;28;20415;-60
2022/10/03 01:46:37;;;;;;;22.20;5.93;;;;;;;;;;5051250;28;20052;-60
2022/10/03 01:49:13;;;;;;;22.40;4.80;;;;;;;;;;5051372;28;20041;-61
2022/10/03 01:51:39;;;;;;;27.17;5.87;;;;;;;;;;5053651;28;20166;-60
2022/10/03 01:54:16;;;;;;;24.40;5.67;;;;;;;;;;5052763;28;20048;-60
2022/10/03 01:56:45;;;;;;;20.63;3.77;;;;;;;;;;5054040;28;20049;-60
2022/10/03 01:59:17;;;;;;;22.90;3.77;;;;;;;;;;5049736;28;20045;-60
2022/10/03 02:01:55;;;;;;;27.40;5.53;;;;;;;;;;5051997;28;20049;-60
2022/10/03 02:04:27;;;;;;;20.17;4.40;;;;;;;;;;5062190;28;20052;-60
2022/10/03 02:07:02;;;;;;;30.07;5.93;;;;;;;;;;5049885;28;20045;-60
2022/10/03 02:09:50;;;;;;;30.43;5.20;;;;;;;;;;5050561;28;20055;-60
2022/10/03 02:12:25;;;;;;;22.17;4.13;;;;;;;;;;5058945;28;20065;-60
2022/10/03 02:15:09;;;;;;;21.23;4.17;;;;;;;;;;5051282;28;20056;-60
2022/10/03 02:17:44;;;;;;;22.57;4.37;;;;;;;;;;5049295;28;20462;-60
2022/10/03 02:20:22;;;;;;;24.73;4.33;;;;;;;;;;5053903;28;20045;-60
2022/10/03 02:22:58;;;;;;;20.83;4.70;;;;;;;;;;5049677;28;20140;-60
2022/10/03 02:25:41;;;;;;;32.43;4.80;;;;;;;;;;5050030;28;20052;-60
2022/10/03 02:28:09;;;;;;;33.27;4.80;;;;;;;;;;5048843;28;20045;-60
2022/10/03 02:30:53;;;;;;;22.10;3.87;;;;;;;;;;5049358;28;20045;-60
2022/10/03 02:33:32;;;;;;;17.70;4.23;;;;;;;;;;5049189;28;20048;-60
2022/10/03 02:36:17;;;;;;;25.73;4.33;;;;;;;;;;5063219;28;20103;-60
2022/10/03 02:38:49;;;;;;;25.90;4.87;;;;;;;;;;5049263;28;20103;-60
2022/10/03 02:41:31;;;;;;;22.30;4.03;;;;;;;;;;5049319;28;20048;-60
2022/10/03 02:44:21;;;;;;;24.60;4.13;;;;;;;;;;5048656;28;20459;-61
2022/10/03 02:47:06;;;;;;;28.97;5.80;;;;;;;;;;5051669;28;20125;-60
2022/10/03 02:49:47;;;;;;;23.13;4.03;;;;;;;;;;5064760;28;20138;-60
2022/10/03 02:52:13;;;;;;;19.80;4.67;;;;;;;;;;5050692;28;20052;-60
2022/10/03 02:54:51;;;;;;;20.17;4.37;;;;;;;;;;5048968;28;20076;-61
2022/10/03 02:57:47;;;;;;;26.07;5.63;;;;;;;;;;5068567;28;20048;-60
2022/10/03 03:00:20;;;;;;;20.67;4.77;;;;;;;;;;5046536;28;20053;-60
2022/10/03 03:03:06;;;;;;;20.98;4.78;;;;;;;;;;5048597;28;20041;-60
2022/10/03 03:06:02;;;;;;;32.83;5.90;;;;;;;;;;5049294;28;20458;-60
2022/10/03 03:08:43;;;;;;;31.43;4.90;;;;;;;;;;5048730;28;20044;-60
2022/10/03 03:11:26;;;;;;;30.93;5.10;;;;;;;;;;5048413;28;20064;-60
2022/10/03 03:14:11;;;;;;;22.60;5.30;;;;;;;;;;5048482;28;20384;-60
2022/10/03 03:16:53;;;;;;;18.70;4.73;;;;;;;;;;5049708;28;20044;-60
2022/10/03 03:19:30;;;;;;;24.83;5.03;;;;;;;;;;5049560;28;20053;-60
2022/10/03 03:22:09;;;;;;;21.00;5.17;;;;;;;;;;5054321;28;20056;-60
2022/10/03 03:24:35;;;;;;;27.57;6.00;;;;;;;;;;5048410;28;20467;-60
2022/10/03 03:27:05;;;;;;;17.80;4.17;;;;;;;;;;5055692;28;20561;-60
2022/10/03 03:29:39;;;;;;;20.23;4.20;;;;;;;;;;5047714;28;20049;-60
2022/10/03 03:32:15;;;;;;;22.40;5.87;;;;;;;;;;5051709;28;20041;-60
2022/10/03 03:35:00;;;;;;;21.50;4.60;;;;;;;;;;5062603;28;20048;-60
2022/10/03 03:37:44;;;;;;;18.40;3.67;;;;;;;;;;5064191;28;20562;-60
2022/10/03 03:40:31;;;;;;;22.33;5.00;;;;;;;;;;5047875;28;20060;-60
2022/10/03 03:43:00;;;;;;;27.07;5.60;;;;;;;;;;5048083;28;20110;-60
2022/10/03 03:45:32;;;;;;;20.20;5.70;;;;;;;;;;5047543;28;20049;-61
2022/10/03 03:48:04;;;;;;;23.53;5.87;;;;;;;;;;5053941;28;20052;-60
2022/10/03 03:50:38;;;;;;;20.40;5.03;;;;;;;;;;5051292;28;20063;-60
2022/10/03 03:53:04;;;;;;;;;;;;;;;;;;5061088;28;20041;-60
2022/10/03 03:55:36;;;;;;;19.57;5.40;;;;;;;;;;5048154;28;20361;-60
2022/10/03 03:58:07;;;;;;;25.03;5.90;;;;;;;;;;5055889;28;20415;-60
2022/10/03 04:00:49;;;;;;;20.13;5.53;;;;;;;;;;5066680;28;20116;-60
2022/10/03 04:03:30;;;;;;;34.90;6.90;;;;;;;;;;5066124;28;20507;-60
2022/10/03 04:06:02;;;;;;;30.07;6.90;;;;;;;;;;5067855;28;20091;-60
2022/10/03 04:08:44;;;;;;;43.57;7.90;;;;;;;;;;5064863;28;20773;-60
2022/10/03 04:11:11;;;;;;;41.87;9.73;;;;;;;;;;5047854;28;20049;-60
2022/10/03 04:13:46;;;;;;;70.37;11.20;;;;;;;;;;5050410;28;20387;-60
2022/10/03 04:19:16;;;;;;;90.07;13.93;;;;;;;;;;5060950;28;20049;-60
2022/10/03 04:22:01;;;;;;;108.30;13.20;;;;;;;;;;5049416;28;20135;-60
2022/10/03 04:24:43;;;;;;;58.53;10.53;;;;;;;;;;5067418;28;20043;-60
2022/10/03 04:27:15;;;;;;;99.10;12.33;;;;;;;;;;5066358;28;20090;-61
2022/10/03 04:30:01;;;;;;;67.53;11.17;;;;;;;;;;5062967;28;20998;-60
2022/10/03 04:32:27;;;;;;;75.63;10.03;;;;;;;;;;5058119;28;20052;-60
2022/10/03 04:35:11;;;;;;;118.37;13.03;;;;;;;;;;5054635;28;20049;-60
2022/10/03 04:37:44;;;;;;;122.03;12.70;;;;;;;;;;5067190;28;20044;-60
2022/10/03 04:40:32;;;;;;;156.30;17.00;;;;;;;;;;5069110;28;20094;-60
2022/10/03 04:43:04;;;;;;;77.97;10.77;;;;;;;;;;5062679;28;20044;-60
2022/10/03 04:45:30;;;;;;;109.33;14.67;;;;;;;;;;5057623;28;20502;-60
2022/10/03 04:48:05;;;;;;;44.73;9.10;;;;;;;;;;5053951;28;20053;-60
2022/10/03 04:50:40;;;;;;;93.10;10.87;;;;;;;;;;5050076;28;20049;-60
2022/10/03 04:53:28;;;;;;;134.97;16.23;;;;;;;;;;5051227;28;20052;-60
2022/10/03 04:56:06;;;;;;;69.97;11.57;;;;;;;;;;5050532;28;20110;-60
2022/10/03 04:58:36;;;;;;;106.60;12.87;;;;;;;;;;5050999;28;20037;-60
2022/10/03 05:01:22;;;;;;;104.77;13.13;;;;;;;;;;5050912;28;20059;-60
2022/10/03 05:03:52;;;;;;;121.83;13.47;;;;;;;;;;5050841;28;20123;-60
2022/10/03 05:06:47;;;;;;;226.60;21.27;;;;;;;;;;5050357;28;20106;-60
2022/10/03 05:09:16;;;;;;;87.93;10.93;;;;;;;;;;5031398;28;20053;-60
2022/10/03 05:12:01;;;;;;;57.60;11.03;;;;;;;;;;5059302;28;20057;-60
2022/10/03 05:14:38;;;;;;;47.77;10.63;;;;;;;;;;5069508;28;20105;-60
2022/10/03 05:17:18;;;;;;;94.33;14.57;;;;;;;;;;5070426;28;20127;-60
2022/10/03 05:19:46;;;;;;;289.00;28.03;;;;;;;;;;5070400;28;20071;-60
2022/10/03 05:22:31;;;;;;;335.13;31.40;;;;;;;;;;5070467;28;20198;-60
2022/10/03 05:25:10;;;;;;;255.90;22.53;;;;;;;;;;5069770;28;20111;-61
2022/10/03 05:27:39;;;;;;;422.87;37.07;;;;;;;;;;5070130;28;20051;-60
2022/10/03 05:30:09;;;;;;;345.77;31.63;;;;;;;;;;5052799;28;20049;-60
2022/10/03 05:32:49;;;;;;;291.97;24.80;;;;;;;;;;5069945;28;20059;-60
2022/10/03 05:35:23;;;;;;;290.33;20.27;;;;;;;;;;5070014;28;20056;-60
2022/10/03 05:37:55;;;;;;;351.63;25.07;;;;;;;;;;5069963;28;20053;-60
2022/10/03 05:40:25;;;;;;;262.07;20.90;;;;;;;;;;5069836;28;20048;-60
2022/10/03 05:42:51;;;;;;;278.30;22.50;;;;;;;;;;5070023;28;20079;-61
2022/10/03 05:45:20;;;;;;;266.67;20.90;;;;;;;;;;5070110;28;20045;-61
2022/10/03 05:48:05;;;;;;;160.13;15.40;;;;;;;;;;5069710;28;20052;-60
2022/10/03 05:50:31;;;;;;;189.37;19.27;;;;;;;;;;5065711;28;20044;-60
2022/10/03 05:53:00;;;;;;;233.60;23.07;;;;;;;;;;5069851;28;20052;-60
2022/10/03 05:55:26;;;;;;;100.90;16.00;;;;;;;;;;5049177;28;20407;-60
2022/10/03 05:58:11;;;;;;;71.30;12.10;;;;;;;;;;5049696;28;20515;-60
2022/10/03 06:00:56;;;;;;;39.77;9.37;;;;;;;;;;5049467;28;20045;-60
2022/10/03 06:03:26;;;;;;;29.60;8.97;;;;;;;;;;5050239;28;20053;-60
2022/10/03 06:06:10;;;;;;;44.03;10.37;;;;;;;;;;5049282;28;20059;-61
2022/10/03 06:08:55;;;;;;;102.07;16.03;;;;;;;;;;5056068;28;20380;-60
2022/10/03 06:11:33;;;;;;;88.97;13.80;;;;;;;;;;5054266;28;20084;-60
2022/10/03 06:14:09;;;;;;;69.83;14.50;;;;;;;;;;5061762;28;20498;-60
2022/10/03 06:16:50;;;;;;;36.33;10.90;;;;;;;;;;5058052;28;20454;-60
2022/10/03 06:19:26;;;;;;;30.20;9.37;;;;;;;;;;5058778;28;20427;-60
2022/10/03 06:22:07;;;;;;;24.33;7.27;;;;;;;;;;5055615;28;20102;-60
2022/10/03 06:24:52;;;;;;;29.93;10.10;;;;;;;;;;5059311;28;20041;-61
2022/10/03 06:27:36;;;;;;;27.60;9.00;;;;;;;;;;5054083;28;20049;-61
2022/10/03 06:30:14;;;;;;;36.47;10.47;;;;;;;;;;5056278;28;20154;-61
2022/10/03 06:32:45;;;;;;;31.47;9.90;;;;;;;;;;5058340;28;20037;-60
2022/10/03 06:35:32;;;;;;;25.00;10.10;;;;;;;;;;5056300;28;20052;-61
2022/10/03 06:38:16;;;;;;;24.27;8.53;;;;;;;;;;5059471;28;20049;-61
2022/10/03 06:41:01;;;;;;;25.20;8.60;;;;;;;;;;5061382;28;20768;-61
2022/10/03 06:43:43;;;;;;;29.47;10.33;;;;;;;;;;5056666;28;20117;-61
2022/10/03 06:46:29;;;;;;;25.90;7.97;;;;;;;;;;5054464;28;20052;-61
2022/10/03 06:49:20;;;;;;;24.97;9.07;;;;;;;;;;5058777;28;20045;-61
2022/10/03 06:51:59;;;;;;;23.13;8.43;;;;;;;;;;5058719;28;20539;-61
2022/10/03 06:54:44;;;;;;;24.13;9.10;;;;;;;;;;5060575;28;20044;-61
2022/10/03 06:57:31;;;;;;;21.57;8.13;;;;;;;;;;5053161;28;20045;-61
2022/10/03 06:59:58;;;;;;;29.57;9.43;;;;;;;;;;5060321;28;20051;-61
2022/10/03 07:02:24;;;;;;;16.10;8.33;;;;;;;;;;5059924;28;20049;-61
2022/10/03 07:04:50;;;;;;;27.70;9.10;;;;;;;;;;5062446;28;20138;-61
2022/10/03 07:07:34;;;;;;;27.30;8.43;;;;;;;;;;5057086;28;20057;-61
2022/10/03 07:10:15;;;;;;;22.33;7.57;;;;;;;;;;5053538;28;20040;-61
2022/10/03 07:12:51;;;;;;;20.17;7.90;;;;;;;;;;5057493;28;20052;-61
2022/10/03 07:15:24;;;;;;;16.87;6.50;;;;;;;;;;5055846;28;20414;-61
2022/10/03 07:17:57;;;;;;;15.60;6.47;;;;;;;;;;5058457;28;20049;-60
2022/10/03 07:20:44;;;;;;;18.52;6.03;;;;;;;;;;5055247;28;20041;-61
2022/10/03 07:23:19;;;;;;;22.80;7.67;;;;;;;;;;5055714;28;20503;-61
2022/10/03 07:25:45;;;;;;;16.67;6.90;;;;;;;;;;5058306;28;20044;-61
2022/10/03 07:28:30;;;;;;;20.47;6.80;;;;;;;;;;5052785;28;20041;-61
2022/10/03 07:31:02;;;;;;;22.97;6.73;;;;;;;;;;5058687;28;20093;-61
2022/10/03 07:33:46;;;;;;;13.33;5.87;;;;;;;;;;5058494;28;20048;-61
2022/10/03 07:39:16;;;;;;;19.60;5.53;;;;;;;;;;5054240;28;20049;-61
2022/10/03 07:42:03;;;;;;;18.90;7.03;;;;;;;;;;5056085;28;20095;-61
2022/10/03 07:44:32;;;;;;;14.23;4.77;;;;;;;;;;5048806;28;20380;-61
2022/10/03 07:46:58;;;;;;;22.10;6.60;;;;;;;;;;5047774;28;20057;-61
2022/10/03 07:49:43;;;;;;;16.63;5.20;;;;;;;;;;5047285;28;20110;-61
2022/10/03 07:52:28;;;;;;;22.03;4.23;;;;;;;;;;5045663;28;20442;-61
2022/10/03 07:55:09;;;;;;;18.73;6.23;;;;;;;;;;5054223;28;20056;-61
2022/10/03 07:57:56;;;;;;;16.43;4.10;;;;;;;;;;5065485;28;20056;-61
2022/10/03 08:00:23;;;;;;;15.97;4.90;;;;;;;;;;5046539;28;20424;-61
2022/10/03 08:03:08;;;;;;;19.90;5.13;;;;;;;;;;5050781;28;20079;-61
2022/10/03 08:05:55;;;;;;;16.93;3.87;;;;;;;;;;5057402;28;20049;-61
2022/10/03 08:08:52;;;;;;;14.50;3.90;;;;;;;;;;5067012;28;20048;-61
2022/10/03 08:11:36;;;;;;;13.60;4.10;;;;;;;;;;5061813;28;20057;-61
2022/10/03 08:14:21;;;;;;;14.13;3.97;;;;;;;;;;5060759;28;20049;-61
2022/10/03 08:16:47;;;;;;;19.93;4.60;;;;;;;;;;5051069;28;20415;-62
2022/10/03 08:19:26;;;;;;;10.47;3.50;;;;;;;;;;5057681;28;20566;-61
2022/10/03 08:21:55;;;;;;;10.43;3.37;;;;;;;;;;5071478;28;20061;-61
2022/10/03 08:24:39;;;;;;;13.67;4.10;;;;;;;;;;5064020;28;20056;-61
2022/10/03 08:27:26;;;;;;;11.07;2.80;;;;;;;;;;5061333;28;20060;-61
2022/10/03 08:30:02;;;;;;;10.43;3.27;;;;;;;;;;5067920;28;20044;-61
2022/10/03 08:32:47;;;;;;;16.43;3.40;;;;;;;;;;5071135;28;20052;-61
2022/10/03 08:35:22;;;;;;;14.73;4.10;;;;;;;;;;5067982;28;20061;-61
2022/10/03 08:38:00;;;;;;;12.17;3.00;;;;;;;;;;5071061;28;20109;-61
2022/10/03 08:40:52;;;;;;;14.93;3.33;;;;;;;;;;5067512;28;20044;-61
2022/10/03 08:43:27;;;;;;;16.33;3.57;;;;;;;;;;5069675;28;20459;-61
2022/10/03 08:45:56;;;;;;;9.93;2.83;;;;;;;;;;5069731;28;20056;-61
2022/10/03 08:48:41;;;;;;;11.70;3.80;;;;;;;;;;5070275;28;20049;-61
2022/10/03 08:51:10;;;;;;;13.60;3.07;;;;;;;;;;5069753;28;20052;-61
2022/10/03 08:53:43;;;;;;;16.40;2.87;;;;;;;;;;5070766;28;20086;-61
2022/10/03 08:56:09;;;;;;;17.98;2.65;;;;;;;;;;5069543;28;20131;-61
2022/10/03 08:58:35;;;;;;;12.83;2.37;;;;;;;;;;5070540;28;20479;-62
2022/10/03 09:01:01;;;;;;;15.37;2.60;;;;;;;;;;5065243;28;20040;-61
2022/10/03 09:03:39;;;;;;;9.93;1.60;;;;;;;;;;5069303;28;20045;-61
2022/10/03 09:06:19;;;;;;;9.10;2.00;;;;;;;;;;5070563;28;20055;-61
2022/10/03 09:08:57;;;;;;;8.30;1.93;;;;;;;;;;5057056;28;20048;-61
2022/10/03 09:11:32;;;;;;;10.10;1.57;;;;;;;;;;5051089;28;20052;-61
2022/10/03 09:14:13;;;;;;;15.27;2.00;;;;;;;;;;5051726;28;20207;-61
2022/10/03 09:16:58;;;;;;;12.77;2.47;;;;;;;;;;5066006;28;20041;-60
2022/10/03 09:19:45;;;;;;;8.10;1.70;;;;;;;;;;5069914;28;20586;-61
2022/10/03 09:22:28;;;;;;;7.97;1.10;;;;;;;;;;5070833;28;20048;-61
2022/10/03 09:25:13;;;;;;;7.80;1.33;;;;;;;;;;5054196;28;20803;-61
2022/10/03 09:28:18;;;;;;;9.30;1.50;;;;;;;;;;5049938;28;20531;-61
2022/10/03 09:30:47;;;;;;;9.33;1.40;;;;;;;;;;5039308;28;20712;-61
2022/10/03 09:33:19;;;;;;;5.97;1.13;;;;;;;;;;5046675;28;20047;-61
2022/10/03 09:35:50;;;;;;;6.23;1.27;;;;;;;;;;5059585;28;20057;-61
2022/10/03 09:38:35;;;;;;;12.13;1.50;;;;;;;;;;5069876;28;20052;-61
2022/10/03 09:41:20;;;;;;;8.53;1.40;;;;;;;;;;5069088;28;20802;-61
2022/10/03 09:44:05;;;;;;;9.70;1.47;;;;;;;;;;5069381;28;20052;-61
2022/10/03 09:47:21;;;;;;;8.13;1.70;;;;;;;;;;5065345;28;20041;-61
2022/10/03 09:49:38;;;;;;;4.60;0.83;;;;;;;;;;5050199;28;20183;-61
2022/10/03 09:52:23;;;;;;;5.67;1.33;;;;;;;;;;5050172;28;20049;-61
2022/10/03 09:55:03;;;;;;;6.57;1.30;;;;;;;;;;5049707;28;20171;-61
2022/10/03 09:57:37;;;;;;;10.10;1.80;;;;;;;;;;5049635;28;20052;-61
2022/10/03 10:00:26;;;;;;;6.20;1.23;;;;;;;;;;5050090;28;20060;-60
2022/10/03 10:03:03;;;;;;;6.53;1.30;;;;;;;;;;5049189;28;20053;-60
2022/10/03 10:05:47;;;;;;;7.10;1.37;;;;;;;;;;5064424;28;20045;-60
2022/10/03 10:08:32;;;;;;;7.20;1.53;;;;;;;;;;5069564;28;20044;-61
2022/10/03 10:11:16;;;;;;;5.30;1.50;;;;;;;;;;5068050;28;20136;-60
2022/10/03 10:13:45;;;;;;;6.17;1.37;;;;;;;;;;5050223;28;20053;-60
2022/10/03 10:16:11;;;;;;;9.53;1.53;;;;;;;;;;5050323;28;20443;-60
2022/10/03 10:18:49;;;;;;;11.73;1.90;;;;;;;;;;5054232;28;20037;-60
2022/10/03 10:21:15;;;;;;;11.57;1.67;;;;;;;;;;5065754;28;20089;-60
2022/10/03 10:29:28;;;;;;;5.80;1.67;;;;;;;;;;4829156;23;20509;-62
2022/10/03 10:31:57;;;;;;;5.87;1.20;;;;;;;;;;4969115;28;20145;-62
2022/10/03 10:34:23;;;;;;;7.13;1.57;;;;;;;;;;4969933;28;20047;-63
2022/10/03 10:37:20;;;;;;;9.43;1.60;;;;;;;;;;4971086;28;20055;-63
2022/10/03 10:39:46;;;;;;;6.37;1.60;;;;;;;;;;4970790;28;20051;-63
2022/10/03 10:42:12;;;;;;;4.53;1.27;;;;;;;;;;4970638;28;20094;-63
2022/10/03 10:44:57;;;;;;;7.30;1.20;;;;;;;;;;4970098;28;20053;-63
2022/10/03 10:47:35;;;;;;;6.57;1.20;;;;;;;;;;4970536;28;20508;-63
2022/10/03 10:50:27;;;;;;;8.67;1.63;;;;;;;;;;4964849;28;20051;-63
2022/10/03 10:53:11;;;;;;;8.80;1.87;;;;;;;;;;4950745;29;20505;-63
2022/10/03 10:55:37;;;;;;;6.90;1.63;;;;;;;;;;4951877;28;20059;-63
2022/10/03 10:58:24;;;;;;;9.60;1.73;;;;;;;;;;4970502;28;20053;-63
2022/10/03 11:01:08;;;;;;;6.80;1.43;;;;;;;;;;4949359;28;20050;-63
2022/10/03 11:03:49;;;;;;;6.70;1.23;;;;;;;;;;4970165;28;20091;-63
2022/10/03 11:06:22;;;;;;;5.50;1.73;;;;;;;;;;4968552;28;20411;-63
2022/10/03 11:09:03;;;;;;;5.13;1.30;;;;;;;;;;4960308;28;20055;-63
2022/10/03 11:11:48;;;;;;;8.13;1.83;;;;;;;;;;4959134;28;20046;-63
2022/10/03 11:14:17;;;;;;;5.43;1.57;;;;;;;;;;4965152;28;20043;-63
2022/10/03 11:17:02;;;;;;;7.07;1.30;;;;;;;;;;4967325;28;20078;-63
2022/10/03 11:19:47;;;;;;;5.50;1.30;;;;;;;;;;4960657;28;20081;-63
2022/10/03 11:22:32;;;;;;;7.67;1.30;;;;;;;;;;4980194;28;20055;-63
2022/10/03 11:25:16;;;;;;;4.90;1.27;;;;;;;;;;4966434;28;20408;-63
2022/10/03 11:28:01;;;;;;;10.20;1.40;;;;;;;;;;4961298;28;20145;-63
2022/10/03 11:30:46;;;;;;;6.20;1.60;;;;;;;;;;4959760;28;20166;-63
2022/10/03 11:33:35;;;;;;;6.40;1.30;;;;;;;;;;4957807;28;20042;-63
2022/10/03 11:36:07;;;;;;;5.07;1.17;;;;;;;;;;4939217;28;20141;-63
2022/10/03 11:38:45;;;;;;;11.73;1.73;;;;;;;;;;4965203;28;20050;-63
2022/10/03 11:41:17;;;;;;;7.07;1.50;;;;;;;;;;4950833;28;20051;-63
2022/10/03 11:43:43;;;;;;;5.63;1.50;;;;;;;;;;4949531;28;20039;-63
2022/10/03 11:46:14;;;;;;;6.37;1.27;;;;;;;;;;4951084;28;20501;-63
2022/10/03 11:48:40;;;;;;;7.00;2.07;;;;;;;;;;4967671;28;20050;-63
2022/10/03 11:51:14;;;;;;;6.87;1.57;;;;;;;;;;4968562;28;20065;-63
2022/10/03 11:53:43;;;;;;;5.70;1.20;;;;;;;;;;4952301;28;20073;-63
2022/10/03 11:56:15;;;;;;;6.13;1.43;;;;;;;;;;4962067;28;20082;-63
2022/10/03 11:59:08;;;;;;;5.57;1.10;;;;;;;;;;4962294;28;20067;-63
2022/10/03 12:01:52;;;;;;;6.67;1.43;;;;;;;;;;4930578;28;20042;-63
2022/10/03 12:04:34;;;;;;;6.67;1.40;;;;;;;;;;4967731;28;20070;-63
2022/10/03 12:09:53;;;;;;;5.17;1.20;;;;;;;;;;4968708;28;20047;-63
2022/10/03 12:12:30;;;;;;;6.67;2.07;;;;;;;;;;4967943;28;20047;-63
2022/10/03 12:15:00;;;;;;;6.73;1.30;;;;;;;;;;4968888;28;20477;-63
2022/10/03 12:17:34;;;;;;;4.13;1.20;;;;;;;;;;4963439;28;20039;-63
2022/10/03 12:20:04;;;;;;;5.87;1.30;;;;;;;;;;4959711;28;20093;-63
2022/10/03 12:22:30;;;;;;;10.57;2.60;;;;;;;;;;4967353;28;20058;-63
2022/10/03 12:25:13;;;;;;;7.60;1.30;;;;;;;;;;4967569;28;20054;-63
2022/10/03 12:27:48;;;;;;;7.22;1.20;;;;;;;;;;4968052;28;20038;-63
2022/10/03 12:30:15;;;;;;;5.50;1.33;;;;;;;;;;4967240;28;20428;-63
2022/10/03 12:32:48;;;;;;;4.70;1.20;;;;;;;;;;4967631;28;20138;-63
2022/10/03 12:35:28;;;;;;;5.15;1.20;;;;;;;;;;4967776;28;20131;-63
2022/10/03 12:38:14;;;;;;;5.10;1.07;;;;;;;;;;4965643;28;20101;-63
2022/10/03 12:40:43;;;;;;;5.97;1.40;;;;;;;;;;4968541;28;20046;-63
2022/10/03 12:43:15;;;;;;;4.40;1.20;;;;;;;;;;4968086;28;20047;-64
2022/10/03 12:45:44;;;;;;;6.80;1.60;;;;;;;;;;4968504;28;20396;-64
2022/10/03 12:48:30;;;;;;;9.83;1.63;;;;;;;;;;4968803;28;20110;-63
2022/10/03 12:51:00;;;;;;;7.40;1.20;;;;;;;;;;4967823;28;21332;-64
2022/10/03 12:53:29;;;;;;;6.13;1.23;;;;;;;;;;4968598;28;20089;-63
2022/10/03 12:56:06;;;;;;;5.30;1.33;;;;;;;;;;4967190;28;20074;-63
2022/10/03 12:58:32;;;;;;;5.70;1.60;;;;;;;;;;4968150;28;20459;-63
2022/10/03 13:01:01;;;;;;;8.20;1.20;;;;;;;;;;4970225;28;20050;-63
2022/10/03 13:03:39;;;;;;;4.43;0.90;;;;;;;;;;4971955;28;20046;-63
2022/10/03 13:06:24;;;;;;;5.43;1.23;;;;;;;;;;4971529;28;20488;-64
2022/10/03 13:08:50;;;;;;;7.00;1.13;;;;;;;;;;4972278;28;20057;-64
2022/10/03 13:11:16;;;;;;;6.33;1.20;;;;;;;;;;4970642;28;20046;-63
2022/10/03 13:14:00;;;;;;;5.87;1.10;;;;;;;;;;4970615;28;20049;-63
2022/10/03 13:16:32;;;;;;;4.23;1.53;;;;;;;;;;4970068;28;20065;-64
2022/10/03 13:18:58;;;;;;;5.50;1.07;;;;;;;;;;4969593;28;20142;-63
2022/10/03 13:21:33;;;;;;;6.93;1.20;;;;;;;;;;4970490;28;20474;-64
2022/10/03 13:24:06;;;;;;;4.37;1.17;;;;;;;;;;4970443;28;20047;-63
2022/10/03 13:26:35;;;;;;;4.13;1.20;;;;;;;;;;4971305;28;20054;-64
2022/10/03 13:29:24;;;;;;;6.07;1.03;;;;;;;;;;4970644;28;20385;-64
2022/10/03 13:32:02;;;;;;;4.40;1.10;;;;;;;;;;4971706;28;20054;-64
2022/10/03 13:34:30;;;;;;;7.57;1.20;;;;;;;;;;4970229;28;20089;-63
2022/10/03 13:37:04;;;;;;;3.50;1.20;;;;;;;;;;4971457;28;20497;-64
2022/10/03 13:39:45;;;;;;;4.80;1.00;;;;;;;;;;4970756;28;20051;-64
2022/10/03 13:42:20;;;;;;;6.97;1.20;;;;;;;;;;4970818;28;20089;-64
2022/10/03 13:44:51;;;;;;;5.67;1.10;;;;;;;;;;4971415;28;20047;-64
2022/10/03 13:47:31;;;;;;;5.65;2.03;;;;;;;;;;4971521;28;20099;-64
2022/10/03 13:50:21;;;;;;;6.33;1.73;;;;;;;;;;4969391;28;20082;-64
2022/10/03 13:53:04;;;;;;;8.35;1.15;;;;;;;;;;4952470;28;20051;-64
2022/10/03 13:55:49;;;;;;;6.20;1.25;;;;;;;;;;4970938;28;20097;-64
2022/10/03 13:58:34;;;;;;;4.95;1.20;;;;;;;;;;4971293;28;20053;-64
2022/10/03 14:01:12;;;;;;;7.22;1.50;;;;;;;;;;4971034;28;20113;-64
2022/10/03 14:03:57;;;;;;;5.15;1.30;;;;;;;;;;4970997;28;20054;-64
2022/10/03 14:06:26;;;;;;;4.65;1.20;;;;;;;;;;4970921;28;20413;-64
2022/10/03 14:08:58;;;;;;;4.90;1.10;;;;;;;;;;4970741;28;20051;-65
2022/10/03 14:11:25;;;;;;;4.07;1.20;;;;;;;;;;4970440;28;20047;-64
2022/10/03 14:14:15;;;;;;;3.53;1.15;;;;;;;;;;4970314;28;20061;-64
2022/10/03 14:16:46;;;;;;;7.00;1.40;;;;;;;;;;4970272;28;20046;-64
2022/10/03 14:19:12;;;;;;;4.82;1.13;;;;;;;;;;4970991;28;20054;-64
2022/10/03 14:21:51;;;;;;;8.18;1.50;;;;;;;;;;4971242;28;20558;-64
2022/10/03 14:24:17;;;;;;;7.35;1.30;;;;;;;;;;4970682;28;20054;-65
2022/10/03 14:26:43;;;;;;;6.03;1.30;;;;;;;;;;4970974;28;20101;-64
2022/10/03 14:29:33;;;;;;;5.63;1.10;;;;;;;;;;4966041;28;20110;-64
2022/10/03 14:32:14;;;;;;;5.05;1.10;;;;;;;;;;4960729;28;20055;-64
2022/10/03 14:34:49;;;;;;;6.22;1.25;;;;;;;;;;4960841;28;20776;-65
2022/10/03 14:37:15;;;;;;;7.65;1.50;;;;;;;;;;4967691;28;20095;-64
2022/10/03 14:39:48;;;;;;;5.45;0.90;;;;;;;;;;4984807;28;20463;-64
2022/10/03 14:42:17;;;;;;;7.72;1.15;;;;;;;;;;4970943;28;20046;-64
2022/10/03 14:44:48;;;;;;;5.23;1.43;;;;;;;;;;4970915;28;20046;-64
2022/10/03 14:47:20;;;;;;;7.17;1.17;;;;;;;;;;4970735;28;20047;-64
2022/10/03 14:49:48;;;;;;;6.68;1.83;;;;;;;;;;4970507;28;20051;-64
2022/10/03 14:52:25;;;;;;;3.37;1.03;;;;;;;;;;4970219;28;20042;-64
2022/10/03 14:54:54;;;;;;;5.60;1.27;;;;;;;;;;4970724;28;20050;-64
2022/10/03 14:57:25;;;;;;;4.77;1.20;;;;;;;;;;4969910;28;20436;-64
2022/10/03 14:59:56;;;;;;;5.03;1.40;;;;;;;;;;4970572;28;20062;-64
2022/10/03 15:02:38;;;;;;;8.87;1.20;;;;;;;;;;4970108;28;20086;-64
2022/10/03 15:05:13;;;;;;;5.87;0.97;;;;;;;;;;4969601;28;20042;-64
2022/10/03 15:07:40;;;;;;;5.20;1.30;;;;;;;;;;4968786;28;20057;-64
2022/10/03 15:10:09;;;;;;;6.13;1.10;;;;;;;;;;4970110;28;20054;-64
2022/10/03 15:12:37;;;;;;;3.43;0.97;;;;;;;;;;4969754;28;20050;-64
2022/10/03 15:15:23;;;;;;;6.87;1.20;;;;;;;;;;4970317;28;20049;-63
2022/10/03 15:17:50;;;;;;;4.00;1.17;;;;;;;;;;4970483;28;20078;-64
2022/10/03 15:20:19;;;;;;;8.30;1.67;;;;;;;;;;4952729;28;20046;-64
2022/10/03 15:22:52;;;;;;;6.30;1.37;;;;;;;;;;4966230;28;20102;-64
2022/10/03 15:25:25;;;;;;;4.37;0.97;;;;;;;;;;4967076;28;20514;-64
2022/10/03 15:27:53;;;;;;;4.60;0.70;;;;;;;;;;4969028;28;20414;-64
2022/10/03 15:30:24;;;;;;;4.10;0.83;;;;;;;;;;4969459;28;20090;-64
2022/10/03 15:32:52;;;;;;;4.33;1.13;;;;;;;;;;4968934;28;20091;-64
2022/10/03 15:35:29;;;;;;;5.40;1.40;;;;;;;;;;4968570;28;20057;-65
2022/10/03 15:37:58;;;;;;;5.07;1.43;;;;;;;;;;4969311;28;20043;-65
2022/10/03 15:40:30;;;;;;;9.83;1.60;;;;;;;;;;4969456;28;20054;-64
2022/10/03 15:43:26;;;;;;;5.40;0.98;;;;;;;;;;4969782;28;20046;-64
2022/10/03 15:45:52;;;;;;;5.93;1.90;;;;;;;;;;4960544;28;20059;-65